createdAt,value
2018-04-19T00:01:09.257Z,77.4
2018-04-19T00:02:19.352Z,77.08
2018-04-19T00:03:29.437Z,77.08
2018-04-19T00:04:39.002Z,77.08
2018-04-19T00:05:49.081Z,77.17
2018-04-19T00:06:59.163Z,77.08
2018-04-19T00:08:09.240Z,77.36
2018-04-19T00:09:19.374Z,77.26
2018-04-19T00:10:29.399Z,77.46
2018-04-19T00:11:39.428Z,77.36
2018-04-19T00:12:49.001Z,77.55
2018-04-19T00:13:58.760Z,77.65
2018-04-19T00:15:08.825Z,77.26
2018-04-19T00:16:18.826Z,77.65
2018-04-19T00:17:28.822Z,77.55
2018-04-19T00:18:38.857Z,77.55
2018-04-19T00:19:48.354Z,77.36
2018-04-19T00:20:58.104Z,77.55
2018-04-19T00:22:08.129Z,77.26
2018-04-19T00:23:18.143Z,77.26
2018-04-19T00:24:28.113Z,77.17
2018-04-19T00:25:38.137Z,77.55
2018-04-19T00:26:48.220Z,77.23
2018-04-19T00:27:58.000Z,77.13
2018-04-19T00:29:07.760Z,77.33
2018-04-19T00:30:17.788Z,77.23
2018-04-19T00:31:27.561Z,77.23
2018-04-19T00:32:37.327Z,77.51
2018-04-19T00:33:47.348Z,77.33
2018-04-19T00:34:56.598Z,77.51
2018-04-19T00:36:06.429Z,77.51
2018-04-19T00:37:16.195Z,77.51
2018-04-19T00:38:25.955Z,77.13
2018-04-19T00:39:35.707Z,77.13
2018-04-19T00:40:45.738Z,77.13
2018-04-19T00:41:55.764Z,76.94
2018-04-19T00:43:05.766Z,77.23
2018-04-19T00:44:15.779Z,77.04
2018-04-19T00:45:25.807Z,77.23
2018-04-19T00:46:35.820Z,77.33
2018-04-19T00:47:45.822Z,77.13
2018-04-19T00:48:55.589Z,76.94
2018-04-19T00:50:05.387Z,77.33
2018-04-19T00:51:15.434Z,76.94
2018-04-19T00:52:25.200Z,77.23
2018-04-19T00:53:35.214Z,77.04
2018-04-19T00:54:44.993Z,77.13
2018-04-19T00:55:54.794Z,77.13
2018-04-19T00:57:04.818Z,77.13
2018-04-19T00:58:14.568Z,77.04
2018-04-19T00:59:24.604Z,77.33
2018-04-19T01:00:34.619Z,76.94
2018-04-19T01:01:44.371Z,77.04
2018-04-19T01:02:54.131Z,77.04
2018-04-19T01:04:04.129Z,77.33
2018-04-19T01:05:13.891Z,77.13
2018-04-19T01:06:23.914Z,77.19
2018-04-19T01:07:33.920Z,76.9
2018-04-19T01:08:43.946Z,77.13
2018-04-19T01:09:53.982Z,77.33
2018-04-19T01:11:04.024Z,77.13
2018-04-19T01:12:14.042Z,77.13
2018-04-19T01:13:23.543Z,77.33
2018-04-19T01:14:33.546Z,77.33
2018-04-19T01:15:43.572Z,77.13
2018-04-19T01:16:53.595Z,76.94
2018-04-19T01:18:03.090Z,77.23
2018-04-19T01:19:13.106Z,77.33
2018-04-19T01:20:22.945Z,77.13
2018-04-19T01:21:32.961Z,77.04
2018-04-19T01:22:43.042Z,77.04
2018-04-19T01:23:53.062Z,77.23
2018-04-19T01:25:02.816Z,77.04
2018-04-19T01:26:12.857Z,77.04
2018-04-19T01:27:22.889Z,77.13
2018-04-19T01:28:32.920Z,77.33
2018-04-19T01:29:42.952Z,77.33
2018-04-19T01:30:52.955Z,77.33
2018-04-19T01:32:02.982Z,77.13
2018-04-19T01:33:12.999Z,77.23
2018-04-19T01:34:23.005Z,77.51
2018-04-19T01:35:33.040Z,77.09
2018-04-19T01:36:43.070Z,77.19
2018-04-19T01:37:53.071Z,77.28
2018-04-19T01:39:03.087Z,77.13
2018-04-19T01:40:13.122Z,77.04
2018-04-19T01:41:22.884Z,77.13
2018-04-19T01:42:32.958Z,77.04
2018-04-19T01:43:42.991Z,77
2018-04-19T01:44:53.010Z,77.51
2018-04-19T01:46:02.252Z,77.23
2018-04-19T01:47:12.042Z,77.19
2018-04-19T01:48:22.131Z,77.38
2018-04-19T01:49:32.223Z,77
2018-04-19T01:50:42.319Z,77.19
2018-04-19T01:51:52.389Z,77
2018-04-19T01:53:02.481Z,77.28
2018-04-19T01:54:12.565Z,77.51
2018-04-19T01:55:22.645Z,77
2018-04-19T01:56:32.734Z,77
2018-04-19T01:57:42.828Z,77
2018-04-19T01:58:52.907Z,77.23
2018-04-19T02:00:02.784Z,77.19
2018-04-19T02:01:12.342Z,77.19
2018-04-19T02:02:22.154Z,77
2018-04-19T02:03:32.249Z,77.38
2018-04-19T02:04:42.061Z,77.48
2018-04-19T02:05:51.931Z,77.19
2018-04-19T02:07:01.739Z,77
2018-04-19T02:08:11.565Z,77.19
2018-04-19T02:09:21.643Z,77.48
2018-04-19T02:10:31.714Z,77.48
2018-04-19T02:11:41.782Z,77.09
2018-04-19T02:12:51.864Z,77.09
2018-04-19T02:14:01.948Z,77
2018-04-19T02:15:11.504Z,77.28
2018-04-19T02:16:21.324Z,77
2018-04-19T02:17:31.639Z,77
2018-04-19T02:18:41.716Z,77
2018-04-19T02:19:51.825Z,77.19
2018-04-19T02:21:01.641Z,76.9
2018-04-19T02:22:11.212Z,76.9
2018-04-19T02:23:21.069Z,77.09
2018-04-19T02:24:30.879Z,76.9
2018-04-19T02:25:40.701Z,77.28
2018-04-19T02:26:50.802Z,77.19
2018-04-19T02:28:00.633Z,77.19
2018-04-19T02:29:10.188Z,77
2018-04-19T02:30:19.741Z,77.09
2018-04-19T02:31:29.563Z,77.15
2018-04-19T02:32:39.657Z,77.15
2018-04-19T02:33:49.499Z,77.06
2018-04-19T02:34:59.092Z,77.25
2018-04-19T02:36:09.175Z,77.06
2018-04-19T02:37:19.269Z,76.96
2018-04-19T02:38:29.365Z,76.96
2018-04-19T02:39:39.449Z,76.86
2018-04-19T02:40:49.521Z,77.28
2018-04-19T02:41:59.601Z,77.19
2018-04-19T02:43:09.437Z,77
2018-04-19T02:44:19.528Z,77.09
2018-04-19T02:45:29.623Z,76.9
2018-04-19T02:46:39.507Z,76.96
2018-04-19T02:47:49.591Z,77.34
2018-04-19T02:48:59.669Z,76.96
2018-04-19T02:50:09.755Z,76.96
2018-04-19T02:51:19.851Z,76.86
2018-04-19T02:52:29.704Z,77.15
2018-04-19T02:53:39.784Z,77.15
2018-04-19T02:54:49.591Z,76.96
2018-04-19T02:55:59.707Z,76.96
2018-04-19T02:57:09.804Z,77.15
2018-04-19T02:58:21.467Z,77.25
2018-04-19T02:59:36.902Z,77.25
2018-04-19T03:00:47.753Z,77.53
2018-04-19T03:01:57.869Z,76.96
2018-04-19T03:33:41.838Z,73.72
2018-04-19T03:34:51.933Z,74.19
2018-04-19T03:36:01.746Z,74.96
2018-04-19T03:37:11.834Z,75.43
2018-04-19T03:38:21.926Z,75.81
2018-04-19T03:39:32.034Z,76.67
2018-04-19T03:40:42.149Z,76.67
2018-04-19T03:41:52.006Z,77.53
2018-04-19T03:43:02.070Z,77.09
2018-04-19T03:44:12.131Z,77.09
2018-04-19T03:45:22.247Z,77.57
2018-04-19T03:46:32.330Z,77.76
2018-04-19T03:47:42.136Z,77.76
2018-04-19T03:48:52.225Z,77.8
2018-04-19T03:50:02.307Z,77.7
2018-04-19T03:51:12.390Z,77.61
2018-04-19T03:52:22.220Z,77.26
2018-04-19T03:53:32.300Z,77.08
2018-04-19T03:54:42.402Z,77.17
2018-04-19T03:55:52.470Z,77.36
2018-04-19T03:57:02.330Z,77.17
2018-04-19T03:58:12.400Z,77.36
2018-04-19T03:59:22.484Z,76.88
2018-04-19T04:00:32.576Z,77.4
2018-04-19T04:01:42.666Z,76.92
2018-04-19T04:02:52.791Z,76.92
2018-04-19T04:04:02.853Z,77.21
2018-04-19T04:05:12.664Z,76.82
2018-04-19T04:06:22.498Z,77.01
2018-04-19T04:07:32.311Z,76.92
2018-04-19T04:08:42.437Z,76.73
2018-04-19T04:09:52.619Z,76.86
2018-04-19T04:11:02.441Z,76.67
2018-04-19T04:12:12.234Z,77.06
2018-04-19T04:13:22.314Z,76.77
2018-04-19T04:14:32.437Z,77.15
2018-04-19T04:15:42.243Z,77.06
2018-04-19T04:16:52.314Z,76.39
2018-04-19T04:18:02.391Z,76.77
2018-04-19T04:19:12.484Z,76.39
2018-04-19T04:20:22.366Z,76.14
2018-04-19T04:21:32.235Z,76.04
2018-04-19T04:22:42.327Z,75.76
2018-04-19T04:23:52.402Z,75.51
2018-04-19T04:25:02.491Z,75.51
2018-04-19T04:26:12.306Z,75.6
2018-04-19T04:27:22.408Z,76.46
2018-04-19T04:28:32.497Z,75.98
2018-04-19T04:29:42.604Z,75.6
2018-04-19T04:30:52.679Z,75.35
2018-04-19T04:32:02.798Z,75.1
2018-04-19T04:33:12.860Z,74.62
2018-04-19T04:34:22.683Z,74.18
2018-04-19T04:35:32.788Z,73.9
2018-04-19T04:36:42.884Z,73.26
2018-04-19T04:37:53.010Z,73.45
2018-04-19T04:39:02.825Z,73.68
2018-04-19T04:40:12.913Z,73.58
2018-04-19T04:41:22.728Z,72.95
2018-04-19T04:42:32.810Z,73.33
2018-04-19T04:43:42.961Z,73.27
2018-04-19T04:44:53.047Z,73.37
2018-04-19T04:46:03.134Z,73.46
2018-04-19T04:47:12.971Z,73.31
2018-04-19T04:48:23.041Z,73.31
2018-04-19T04:49:33.123Z,73.44
2018-04-19T04:50:43.215Z,73.44
2018-04-19T04:51:53.298Z,73.63
2018-04-19T04:53:03.361Z,73.47
2018-04-19T04:54:13.446Z,73.67
2018-04-19T04:55:23.548Z,73.47
2018-04-19T04:56:33.621Z,73.8
2018-04-19T04:57:43.699Z,73.61
2018-04-19T04:58:53.785Z,73.71
2018-04-19T05:00:03.732Z,73.61
2018-04-19T05:01:13.813Z,73.46
2018-04-19T05:02:23.907Z,73.55
2018-04-19T05:03:33.974Z,73.46
2018-04-19T05:04:44.064Z,73.55
2018-04-19T05:05:54.203Z,73.3
2018-04-19T05:07:04.027Z,73.3
2018-04-19T05:08:14.118Z,73.49
2018-04-19T05:09:24.190Z,73.39
2018-04-19T05:10:34.271Z,73.3
2018-04-19T05:11:44.157Z,74.1
2018-04-19T05:12:53.976Z,73.24
2018-04-19T05:14:04.078Z,73.33
2018-04-19T05:15:14.158Z,73.33
2018-04-19T05:16:23.983Z,73.53
2018-04-19T05:17:34.145Z,74.2
2018-04-19T05:18:44.229Z,73.85
2018-04-19T05:19:54.325Z,73.95
2018-04-19T05:21:04.156Z,74.33
2018-04-19T05:22:13.981Z,73.91
2018-04-19T05:23:24.078Z,74.24
2018-04-19T05:24:34.168Z,74.43
2018-04-19T05:25:44.278Z,74.52
2018-04-19T05:26:54.375Z,74.27
2018-04-19T05:28:04.478Z,74.66
2018-04-19T05:29:14.585Z,74.85
2018-04-19T05:30:24.674Z,74.18
2018-04-19T05:31:34.763Z,74.95
2018-04-19T05:32:44.985Z,75.09
2018-04-19T05:33:55.071Z,74.69
2018-04-19T05:35:04.685Z,74.89
2018-04-19T05:36:14.504Z,74.6
2018-04-19T05:37:24.601Z,74.99
2018-04-19T05:38:34.711Z,74.6
2018-04-19T05:39:44.530Z,74.79
2018-04-19T05:40:54.603Z,76.1
2018-04-19T05:42:04.704Z,76.65
2018-04-19T05:43:14.519Z,77.76
2018-04-19T05:44:24.607Z,77.44
2018-04-19T05:45:34.419Z,77.15
2018-04-19T05:46:44.516Z,76.61
2018-04-19T05:47:54.616Z,75.84
2018-04-19T05:49:04.434Z,76.71
2018-04-19T05:50:14.505Z,77.34
2018-04-19T05:51:24.368Z,77.34
2018-04-19T05:52:34.444Z,77.5
2018-04-19T05:53:44.269Z,77.5
2018-04-19T05:54:54.352Z,77.4
2018-04-19T05:56:04.430Z,77.69
2018-04-19T05:57:14.261Z,76.53
2018-04-19T05:58:24.352Z,75.99
2018-04-19T05:59:34.450Z,75.61
2018-04-19T06:00:44.004Z,75.51
2018-04-19T06:01:54.090Z,76.28
2018-04-19T06:03:03.944Z,76.82
2018-04-19T06:04:13.897Z,76.34
2018-04-19T06:05:24.002Z,76.92
2018-04-19T06:06:34.084Z,76.25
2018-04-19T06:07:43.931Z,76.06
2018-04-19T06:08:54.033Z,75.51
2018-04-19T06:10:04.173Z,75.99
2018-04-19T06:11:13.994Z,76.34
2018-04-19T06:12:23.834Z,76.25
2018-04-19T06:13:33.938Z,76.73
2018-04-19T06:14:43.748Z,76.73
2018-04-19T06:15:53.834Z,76.78
2018-04-19T06:17:03.904Z,76.63
2018-04-19T06:18:14.008Z,76.63
2018-04-19T06:19:24.089Z,76.63
2018-04-19T06:20:34.208Z,76.92
2018-04-19T06:21:44.056Z,76.63
2018-04-19T06:22:53.875Z,76.53
2018-04-19T06:24:03.706Z,76.15
2018-04-19T06:25:13.803Z,76.34
2018-04-19T06:26:23.911Z,76.63
2018-04-19T06:27:34.017Z,76.53
2018-04-19T06:28:43.820Z,76.63
2018-04-19T06:29:53.647Z,76.25
2018-04-19T06:31:03.467Z,76.53
2018-04-19T06:32:13.285Z,75.86
2018-04-19T06:33:23.420Z,75.96
2018-04-19T06:34:33.503Z,76.15
2018-04-19T06:35:43.615Z,76.34
2018-04-19T06:36:53.686Z,76.15
2018-04-19T06:38:03.495Z,76.06
2018-04-19T06:39:13.619Z,75.96
2018-04-19T06:40:23.701Z,76.06
2018-04-19T06:41:33.863Z,75.86
2018-04-19T06:42:44.033Z,75.76
2018-04-19T06:43:54.123Z,76.06
2018-04-19T06:45:04.193Z,75.86
2018-04-19T06:46:14.269Z,76.06
2018-04-19T06:47:24.356Z,75.96
2018-04-19T06:48:34.440Z,75.8
2018-04-19T06:49:44.547Z,76.06
2018-04-19T06:50:54.631Z,76.09
2018-04-19T06:52:04.480Z,76.28
2018-04-19T06:53:14.287Z,76.38
2018-04-19T06:54:23.573Z,76.18
2018-04-19T06:55:33.654Z,76.57
2018-04-19T06:56:43.730Z,76.28
2018-04-19T06:57:53.827Z,76.18
2018-04-19T06:59:03.913Z,76.28
2018-04-19T07:00:14.002Z,76.18
2018-04-19T07:01:24.081Z,75.8
2018-04-19T07:02:34.170Z,75.8
2018-04-19T07:03:44.275Z,75.8
2018-04-19T07:04:54.353Z,75.8
2018-04-19T07:06:04.174Z,75.8
2018-04-19T07:07:14.005Z,75.8
2018-04-19T07:08:23.599Z,75.99
2018-04-19T07:09:33.171Z,75.99
2018-04-19T07:10:43.277Z,75.93
2018-04-19T07:11:53.370Z,75.93
2018-04-19T07:13:03.198Z,76.13
2018-04-19T07:14:13.083Z,75.93
2018-04-19T07:15:23.155Z,75.74
2018-04-19T07:16:33.226Z,75.74
2018-04-19T07:17:43.315Z,75.84
2018-04-19T07:18:53.401Z,75.45
2018-04-19T07:20:03.499Z,75.45
2018-04-19T07:21:13.578Z,75.68
2018-04-19T07:22:23.409Z,75.68
2018-04-19T07:23:32.987Z,75.49
2018-04-19T07:24:43.094Z,75.59
2018-04-19T07:25:53.097Z,75.59
2018-04-19T07:27:02.876Z,75.68
2018-04-19T07:28:12.452Z,75.59
2018-04-19T07:29:22.559Z,75.78
2018-04-19T07:30:32.640Z,75.82
2018-04-19T07:31:42.740Z,75.72
2018-04-19T07:32:52.828Z,75.82
2018-04-19T07:34:02.669Z,75.62
2018-04-19T07:35:12.750Z,75.43
2018-04-19T07:36:22.845Z,75.47
2018-04-19T07:37:32.979Z,75.67
2018-04-19T07:38:43.075Z,75.67
2018-04-19T07:39:53.157Z,75.67
2018-04-19T07:41:02.987Z,75.76
2018-04-19T07:42:13.067Z,75.85
2018-04-19T07:43:23.158Z,75.67
2018-04-19T07:44:33.250Z,75.67
2018-04-19T07:45:43.337Z,75.89
2018-04-19T07:46:53.677Z,75.7
2018-04-19T07:48:03.775Z,75.79
2018-04-19T07:49:13.865Z,75.51
2018-04-19T07:50:23.952Z,75.79
2018-04-19T07:51:33.864Z,75.74
2018-04-19T07:52:43.945Z,75.74
2018-04-19T07:53:53.545Z,75.84
2018-04-19T07:55:03.679Z,75.64
2018-04-19T07:56:13.517Z,75.93
2018-04-19T07:57:23.609Z,75.74
2018-04-19T07:58:33.450Z,75.84
2018-04-19T07:59:43.556Z,75.74
2018-04-19T08:00:53.647Z,75.78
2018-04-19T08:02:03.752Z,75.97
2018-04-19T08:03:13.822Z,75.78
2018-04-19T08:04:23.345Z,75.78
2018-04-19T08:05:32.931Z,75.87
2018-04-19T08:06:42.956Z,75.87
2018-04-19T08:07:53.012Z,75.97
2018-04-19T08:09:03.042Z,76.01
2018-04-19T08:10:12.805Z,76.1
2018-04-19T08:11:23.035Z,75.91
2018-04-19T08:12:33.281Z,75.62
2018-04-19T08:13:43.316Z,75.62
2018-04-19T08:14:53.097Z,75.81
2018-04-19T08:16:03.128Z,75.81
2018-04-19T08:17:12.900Z,75.91
2018-04-19T08:18:22.925Z,75.91
2018-04-19T08:19:32.934Z,75.75
2018-04-19T08:20:42.741Z,75.95
2018-04-19T08:21:52.768Z,75.46
2018-04-19T08:23:02.850Z,76.04
2018-04-19T08:24:12.994Z,75.85
2018-04-19T08:25:23.080Z,75.95
2018-04-19T08:26:32.900Z,76.14
2018-04-19T08:27:43.010Z,75.89
2018-04-19T08:28:52.821Z,76.18
2018-04-19T08:30:02.380Z,75.95
2018-04-19T08:31:12.472Z,75.98
2018-04-19T08:32:22.550Z,75.98
2018-04-19T08:33:32.637Z,75.89
2018-04-19T08:34:42.728Z,75.89
2018-04-19T08:35:52.808Z,75.92
2018-04-19T08:37:02.910Z,75.73
2018-04-19T08:38:12.983Z,75.83
2018-04-19T08:39:23.070Z,75.92
2018-04-19T08:40:33.151Z,76.12
2018-04-19T08:41:43.279Z,75.92
2018-04-19T08:42:53.378Z,76.02
2018-04-19T08:44:03.455Z,76.02
2018-04-19T08:45:13.551Z,75.92
2018-04-19T08:46:23.638Z,75.73
2018-04-19T08:47:33.457Z,76.02
2018-04-19T08:48:43.545Z,76.06
2018-04-19T08:49:53.632Z,75.96
2018-04-19T08:51:03.722Z,75.83
2018-04-19T08:52:13.825Z,75.77
2018-04-19T08:53:23.956Z,76.15
2018-04-19T08:54:34.025Z,76.06
2018-04-19T08:55:44.123Z,75.77
2018-04-19T08:56:54.223Z,76.06
2018-04-19T08:58:04.065Z,76.15
2018-04-19T08:59:14.168Z,76.06
2018-04-19T09:00:24.270Z,76.15
2018-04-19T09:01:34.356Z,76.06
2018-04-19T09:02:44.261Z,76.06
2018-04-19T09:03:54.484Z,76.15
2018-04-19T09:05:04.634Z,75.96
2018-04-19T09:06:14.741Z,75.81
2018-04-19T09:07:24.839Z,76.1
2018-04-19T09:08:34.937Z,76.1
2018-04-19T09:09:45.028Z,76
2018-04-19T09:10:54.863Z,76
2018-04-19T09:12:04.961Z,76.19
2018-04-19T09:13:14.785Z,76
2018-04-19T09:14:24.864Z,76.19
2018-04-19T09:15:34.977Z,76.1
2018-04-19T09:16:45.067Z,76
2018-04-19T09:17:54.880Z,76.19
2018-04-19T09:19:04.709Z,76
2018-04-19T09:20:14.546Z,75.81
2018-04-19T09:21:24.652Z,75.84
2018-04-19T09:22:34.876Z,76
2018-04-19T09:23:44.968Z,76
2018-04-19T09:24:55.066Z,76.14
2018-04-19T09:26:05.147Z,75.84
2018-04-19T09:27:15.235Z,76.23
2018-04-19T09:28:25.302Z,76.04
2018-04-19T09:29:35.385Z,76.23
2018-04-19T09:30:45.209Z,75.68
2018-04-19T09:31:55.324Z,76.27
2018-04-19T09:33:05.437Z,75.59
2018-04-19T09:34:15.381Z,75.4
2018-04-19T09:35:25.155Z,75.2
2018-04-19T09:36:35.240Z,75.4
2018-04-19T09:37:45.321Z,75.4
2018-04-19T09:38:55.470Z,75.62
2018-04-19T09:40:05.304Z,76.31
2018-04-19T09:41:15.398Z,75.43
2018-04-19T09:42:25.495Z,75.43
2018-04-19T09:43:35.585Z,75.43
2018-04-19T09:44:45.136Z,75.34
2018-04-19T09:45:55.015Z,75.43
2018-04-19T09:47:05.112Z,75.43
2018-04-19T09:48:15.219Z,75.47
2018-04-19T09:49:25.303Z,75.57
2018-04-19T09:50:35.104Z,75.37
2018-04-19T09:51:45.210Z,75.47
2018-04-19T09:52:55.339Z,75.37
2018-04-19T09:54:05.697Z,75.57
2018-04-19T09:55:16.353Z,75.37
2018-04-19T09:56:26.444Z,75.18
2018-04-19T09:57:36.540Z,75.27
2018-04-19T09:58:46.637Z,75.27
2018-04-19T09:59:56.736Z,75.21
2018-04-19T10:01:06.839Z,75.37
2018-04-19T10:02:16.970Z,75.31
2018-04-19T10:03:27.113Z,75.31
2018-04-19T10:04:36.932Z,75.41
2018-04-19T10:05:47.021Z,75.6
2018-04-19T10:06:56.838Z,75.6
2018-04-19T10:08:06.913Z,75.31
2018-04-19T10:09:17.005Z,75.51
2018-04-19T10:10:27.217Z,75.21
2018-04-19T10:11:37.368Z,75.31
2018-04-19T10:12:47.199Z,75.31
2018-04-19T10:13:57.293Z,75.31
2018-04-19T10:15:06.849Z,75.41
2018-04-19T10:16:16.676Z,75.31
2018-04-19T10:17:26.239Z,75.54
2018-04-19T10:18:36.341Z,75.35
2018-04-19T10:19:46.417Z,75.45
2018-04-19T10:20:55.736Z,75.45
2018-04-19T10:22:05.884Z,75.45
2018-04-19T10:23:15.998Z,75.45
2018-04-19T10:24:26.110Z,75.35
2018-04-19T10:25:36.193Z,75.35
2018-04-19T10:26:46.289Z,75.45
2018-04-19T10:27:56.122Z,75.64
2018-04-19T10:29:06.216Z,75.54
2018-04-19T10:30:16.298Z,75.74
2018-04-19T10:31:26.415Z,75.45
2018-04-19T10:32:36.569Z,75.25
2018-04-19T10:33:46.456Z,75.25
2018-04-19T10:34:56.387Z,75.48
2018-04-19T10:36:06.217Z,75.48
2018-04-19T10:37:16.292Z,75.68
2018-04-19T10:38:26.113Z,75.68
2018-04-19T10:39:35.943Z,75.78
2018-04-19T10:40:45.760Z,75.58
2018-04-19T10:41:55.846Z,75.62
2018-04-19T10:43:05.942Z,75.68
2018-04-19T10:44:16.039Z,75.52
2018-04-19T10:45:25.624Z,75.62
2018-04-19T10:46:35.721Z,75.62
2018-04-19T10:47:45.783Z,75.81
2018-04-19T10:48:55.878Z,75.62
2018-04-19T10:50:05.966Z,75.42
2018-04-19T10:51:16.041Z,75.62
2018-04-19T10:52:26.138Z,75.52
2018-04-19T10:53:36.257Z,75.52
2018-04-19T10:54:46.081Z,75.62
2018-04-19T10:55:55.893Z,75.52
2018-04-19T10:57:05.985Z,75.52
2018-04-19T10:58:16.133Z,75.23
2018-04-19T10:59:26.234Z,75.23
2018-04-19T11:00:35.795Z,75.56
2018-04-19T11:01:45.364Z,75.46
2018-04-19T11:02:55.457Z,75.56
2018-04-19T11:04:05.525Z,75.36
2018-04-19T11:05:15.353Z,75.52
2018-04-19T11:06:25.431Z,75.71
2018-04-19T11:07:35.578Z,75.42
2018-04-19T11:08:45.683Z,75.65
2018-04-19T11:09:55.773Z,75.46
2018-04-19T11:11:05.599Z,75.26
2018-04-19T11:12:15.693Z,75.56
2018-04-19T11:13:25.838Z,75.46
2018-04-19T11:14:35.925Z,75.46
2018-04-19T11:15:46.035Z,75.56
2018-04-19T11:16:56.155Z,75.26
2018-04-19T11:18:06.260Z,75.1
2018-04-19T11:19:16.362Z,75.2
2018-04-19T11:20:26.185Z,75.69
2018-04-19T11:21:36.270Z,75.56
2018-04-19T11:22:46.114Z,74.87
2018-04-19T11:23:56.195Z,75.16
2018-04-19T11:25:06.280Z,75.01
2018-04-19T11:26:16.367Z,75.1
2018-04-19T11:27:26.445Z,75.3
2018-04-19T11:28:36.541Z,74.76
2018-04-19T11:29:46.627Z,74.66
2018-04-19T11:30:56.875Z,75.14
2018-04-19T11:32:07.169Z,74.85
2018-04-19T11:33:17.259Z,74.66
2018-04-19T11:34:27.378Z,75.24
2018-04-19T11:35:37.460Z,74.6
2018-04-19T11:36:47.678Z,75.37
2018-04-19T11:37:57.760Z,75.04
2018-04-19T11:39:07.854Z,75.34
2018-04-19T11:40:17.946Z,75.73
2018-04-19T11:41:28.053Z,75.67
2018-04-19T11:42:38.263Z,75.86
2018-04-19T11:43:48.365Z,75.27
2018-04-19T11:44:58.455Z,75.57
2018-04-19T11:46:08.556Z,75.27
2018-04-19T11:47:18.668Z,75.37
2018-04-19T11:48:28.814Z,75.57
2018-04-19T11:49:38.652Z,75.63
2018-04-19T11:50:48.477Z,75.67
2018-04-19T11:51:58.581Z,75.34
2018-04-19T11:53:08.493Z,75.53
2018-04-19T11:54:18.321Z,75.53
2018-04-19T11:55:28.169Z,75.34
2018-04-19T11:56:38.011Z,75.34
2018-04-19T11:57:47.837Z,75.53
2018-04-19T11:58:57.928Z,75.27
2018-04-19T12:00:07.496Z,75.37
2018-04-19T12:01:17.578Z,75.57
2018-04-19T12:02:27.657Z,75.57
2018-04-19T12:03:37.497Z,75.57
2018-04-19T12:04:47.332Z,75.02
2018-04-19T12:05:57.428Z,75.47
2018-04-19T12:07:07.508Z,75.37
2018-04-19T12:08:17.623Z,75.27
2018-04-19T12:09:27.705Z,75.86
2018-04-19T12:10:37.797Z,75.67
2018-04-19T12:11:47.675Z,75.76
2018-04-19T12:12:57.751Z,75.86
2018-04-19T12:14:07.847Z,75.57
2018-04-19T12:15:17.944Z,75.57
2018-04-19T12:16:27.770Z,75.76
2018-04-19T12:17:37.912Z,75.6
2018-04-19T12:18:48.000Z,75.31
2018-04-19T12:19:57.849Z,75.41
2018-04-19T12:21:07.673Z,75.41
2018-04-19T12:22:17.492Z,75.31
2018-04-19T12:23:27.578Z,75.31
2018-04-19T12:24:37.709Z,75.41
2018-04-19T12:25:47.818Z,75.21
2018-04-19T12:26:57.924Z,75.31
2018-04-19T12:28:07.997Z,75.54
2018-04-19T12:29:17.571Z,75.31
2018-04-19T12:30:27.706Z,75.51
2018-04-19T12:31:37.810Z,75.51
2018-04-19T12:32:47.910Z,75.51
2018-04-19T12:33:58.012Z,75.31
2018-04-19T12:35:08.233Z,75.21
2018-04-19T12:36:18.317Z,75.74
2018-04-19T12:37:28.548Z,75.45
2018-04-19T12:38:38.176Z,75.25
2018-04-19T12:39:48.290Z,75.45
2018-04-19T12:40:58.181Z,75.9
2018-04-19T12:42:08.293Z,75.51
2018-04-19T12:43:18.124Z,75.64
2018-04-19T12:44:28.273Z,75.41
2018-04-19T12:45:38.368Z,75.41
2018-04-19T12:46:48.492Z,75.51
2018-04-19T12:47:58.575Z,75.41
2018-04-19T12:49:08.672Z,75.93
2018-04-19T12:50:18.768Z,75.15
2018-04-19T12:51:28.862Z,75.25
2018-04-19T12:52:38.976Z,75.84
2018-04-19T12:53:48.800Z,75.74
2018-04-19T12:54:58.936Z,75.64
2018-04-19T12:56:09.005Z,75.35
2018-04-19T12:57:19.102Z,75.54
2018-04-19T12:58:29.206Z,75.6
2018-04-19T12:59:39.324Z,75.74
2018-04-19T13:00:49.413Z,75.35
2018-04-19T13:01:59.521Z,75.64
2018-04-19T13:03:09.358Z,75.74
2018-04-19T13:04:19.458Z,75.64
2018-04-19T13:05:29.537Z,75.35
2018-04-19T13:06:39.676Z,75.59
2018-04-19T13:07:49.784Z,75.74
2018-04-19T13:08:59.891Z,75.59
2018-04-19T13:10:09.993Z,75.45
2018-04-19T13:11:20.100Z,75.84
2018-04-19T13:12:29.935Z,76.03
2018-04-19T13:13:40.028Z,75.84
2018-04-19T13:14:50.116Z,76.03
2018-04-19T13:16:00.016Z,75.54
2018-04-19T13:17:09.866Z,75.93
2018-04-19T13:18:19.965Z,75.84
2018-04-19T13:19:30.044Z,75.84
2018-04-19T13:20:40.153Z,75.84
2018-04-19T13:21:50.023Z,75.74
2018-04-19T13:23:00.125Z,75.84
2018-04-19T13:24:09.931Z,75.74
2018-04-19T13:25:19.754Z,75.93
2018-04-19T13:26:29.869Z,75.9
2018-04-19T13:27:39.724Z,75.84
2018-04-19T13:28:49.860Z,75.8
2018-04-19T13:29:59.995Z,75.45
2018-04-19T13:31:09.573Z,75.51
2018-04-19T13:32:19.374Z,75.45
2018-04-19T13:33:29.218Z,75.54
2018-04-19T13:34:39.116Z,75.45
2018-04-19T13:35:48.692Z,75.31
2018-04-19T13:36:58.796Z,75.51
2018-04-19T13:38:08.901Z,75.54
2018-04-19T13:39:18.991Z,75.54
2018-04-19T13:40:29.065Z,75.41
2018-04-19T13:41:39.180Z,75.99
2018-04-19T13:42:49.298Z,75.9
2018-04-19T13:43:59.128Z,75.8
2018-04-19T13:45:09.234Z,75.9
2018-04-19T13:46:19.324Z,75.99
2018-04-19T13:47:29.394Z,75.9
2018-04-19T13:48:39.522Z,75.41
2018-04-19T13:49:49.812Z,75.41
2018-04-19T13:50:59.923Z,75.41
2018-04-19T13:52:10.045Z,76.03
2018-04-19T13:53:20.137Z,75.84
2018-04-19T13:54:29.975Z,75.64
2018-04-19T13:55:39.874Z,75.93
2018-04-19T13:56:49.969Z,75.9
2018-04-19T13:58:00.075Z,75.74
2018-04-19T13:59:09.637Z,75.84
2018-04-19T14:00:19.201Z,75.84
2018-04-19T14:01:28.821Z,75.74
2018-04-19T14:02:38.914Z,75.74
2018-04-19T14:03:48.482Z,75.64
2018-04-19T14:04:58.308Z,75.84
2018-04-19T14:06:08.392Z,76.03
2018-04-19T14:07:18.213Z,75.84
2018-04-19T14:08:28.325Z,75.84
2018-04-19T14:09:38.177Z,75.84
2018-04-19T14:10:48.271Z,75.93
2018-04-19T14:11:58.379Z,76.72
2018-04-19T14:13:08.546Z,75.84
2018-04-19T14:14:18.623Z,75.93
2018-04-19T14:15:28.737Z,75.84
2018-04-19T14:16:38.559Z,75.84
2018-04-19T14:17:48.653Z,75.54
2018-04-19T14:18:58.754Z,75.8
2018-04-19T14:20:08.857Z,76.03
2018-04-19T14:21:18.959Z,75.99
2018-04-19T14:22:28.784Z,75.99
2018-04-19T14:23:38.616Z,75.8
2018-04-19T14:24:48.699Z,75.8
2018-04-19T14:25:58.811Z,75.74
2018-04-19T14:27:08.897Z,75.84
2018-04-19T14:28:18.985Z,76.78
2018-04-19T14:29:28.823Z,76.81
2018-04-19T14:30:38.679Z,76.72
2018-04-19T14:31:48.519Z,75.9
2018-04-19T14:32:58.604Z,76.48
2018-04-19T14:34:08.683Z,76.48
2018-04-19T14:35:18.254Z,76.48
2018-04-19T14:36:28.402Z,76.48
2018-04-19T14:37:37.979Z,76.58
2018-04-19T14:38:48.074Z,76.48
2018-04-19T14:39:57.908Z,76.39
2018-04-19T14:41:07.747Z,76.29
2018-04-19T14:42:17.839Z,76.58
2018-04-19T14:43:27.663Z,76.48
2018-04-19T14:44:37.804Z,76.68
2018-04-19T14:45:47.877Z,76.52
2018-04-19T14:46:57.954Z,76.68
2018-04-19T14:48:08.074Z,76.58
2018-04-19T14:49:18.256Z,76.58
2018-04-19T14:50:28.364Z,76.58
2018-04-19T14:51:38.444Z,76.48
2018-04-19T14:52:48.612Z,76.68
2018-04-19T14:53:58.704Z,76.68
2018-04-19T14:55:08.544Z,76.68
2018-04-19T14:56:18.677Z,76.48
2018-04-19T14:57:28.503Z,76.64
2018-04-19T14:58:38.336Z,76.74
2018-04-19T14:59:48.438Z,76.74
2018-04-19T15:00:58.278Z,76.45
2018-04-19T15:02:08.446Z,76.35
2018-04-19T15:03:18.533Z,76.45
2018-04-19T15:04:28.744Z,76.64
2018-04-19T15:05:38.838Z,76.45
2018-04-19T15:06:48.676Z,76.45
2018-04-19T15:07:58.503Z,76.54
2018-04-19T15:09:08.614Z,76.54
2018-04-19T15:10:18.480Z,76.45
2018-04-19T15:11:28.623Z,76.64
2018-04-19T15:12:38.741Z,76.45
2018-04-19T15:13:48.873Z,76.35
2018-04-19T15:14:58.744Z,76.45
2018-04-19T15:16:08.570Z,76.45
2018-04-19T15:17:18.517Z,76.45
2018-04-19T15:18:28.627Z,76.45
2018-04-19T15:19:38.712Z,76.64
2018-04-19T15:20:48.866Z,76.74
2018-04-19T15:21:58.947Z,76.84
2018-04-19T15:23:09.082Z,76.7
2018-04-19T15:24:19.180Z,76.93
2018-04-19T15:25:29.016Z,76.93
2018-04-19T15:26:38.854Z,77.03
2018-04-19T15:27:48.694Z,76.61
2018-04-19T15:28:58.802Z,76.7
2018-04-19T15:30:08.899Z,77.09
2018-04-19T15:31:19.213Z,77.19
2018-04-19T15:32:29.310Z,77
2018-04-19T15:33:39.414Z,77.19
2018-04-19T15:34:49.234Z,76.7
2018-04-19T15:35:59.341Z,76.7
2018-04-19T15:37:09.425Z,77.19